createdAt,value
2022-08-26T00:00:21.622Z,51.111267
2022-08-26T00:01:28.927Z,51.111244
2022-08-26T00:02:22.675Z,51.111256
2022-08-26T00:03:21.613Z,51.111240
2022-08-26T00:04:21.621Z,51.111259
2022-08-26T00:05:21.570Z,51.111366
2022-08-26T00:06:21.575Z,51.111366
2022-08-26T00:07:21.585Z,51.111252
2022-08-26T00:08:21.569Z,51.111256
2022-08-26T00:09:21.526Z,51.111298
2022-08-26T00:10:21.617Z,51.111347
2022-08-26T00:11:26.577Z,51.111340
2022-08-26T00:12:35.892Z,51.111332
2022-08-26T00:13:22.455Z,51.111343
2022-08-26T00:14:21.540Z,51.111294
2022-08-26T00:15:21.507Z,51.111259
2022-08-26T00:16:21.519Z,51.111252
2022-08-26T00:17:21.473Z,51.111305
2022-08-26T00:18:22.139Z,51.111324
2022-08-26T00:19:21.475Z,51.111286
2022-08-26T00:20:21.437Z,51.111256
2022-08-26T00:21:21.462Z,51.111233
2022-08-26T00:22:21.704Z,51.111305
2022-08-26T00:23:24.119Z,51.111282
2022-08-26T00:24:21.469Z,51.111309
2022-08-26T00:25:21.412Z,51.111320
2022-08-26T00:26:21.393Z,51.111279
2022-08-26T00:27:21.417Z,51.111279
2022-08-26T00:28:21.566Z,51.111237
2022-08-26T00:29:21.452Z,51.111237
2022-08-26T00:30:22.917Z,51.111244
2022-08-26T00:31:21.357Z,51.111267
2022-08-26T00:32:21.285Z,51.111267
2022-08-26T00:33:21.297Z,51.111267
2022-08-26T00:34:21.293Z,51.111279
2022-08-26T00:35:21.333Z,51.111263
2022-08-26T00:36:21.264Z,51.111275
2022-08-26T00:37:21.275Z,51.111271
2022-08-26T00:38:21.258Z,51.111263
2022-08-26T00:39:21.238Z,51.111256
2022-08-26T00:40:21.352Z,51.111271
2022-08-26T00:41:21.211Z,51.111256
2022-08-26T00:42:21.212Z,51.111233
2022-08-26T00:43:21.210Z,51.111252
2022-08-26T00:44:21.210Z,51.111252
2022-08-26T00:45:21.281Z,51.111263
2022-08-26T00:46:21.230Z,51.111290
2022-08-26T00:47:21.184Z,51.111294
2022-08-26T00:48:21.232Z,51.111263
2022-08-26T00:49:21.224Z,51.111252
2022-08-26T00:50:21.223Z,51.111248
2022-08-26T00:51:21.261Z,51.111244
2022-08-26T00:52:21.281Z,51.111217
2022-08-26T00:53:21.197Z,51.111248
2022-08-26T00:54:21.253Z,51.111256
2022-08-26T00:55:21.197Z,51.111271
2022-08-26T00:56:21.317Z,51.111324
2022-08-26T00:57:21.176Z,51.111286
2022-08-26T00:58:21.167Z,51.111279
2022-08-26T00:59:21.150Z,51.111271
2022-08-26T01:00:21.157Z,51.111233
2022-08-26T01:01:23.019Z,51.111259
2022-08-26T01:02:21.830Z,51.111252
2022-08-26T01:03:21.151Z,51.111263
2022-08-26T01:04:21.139Z,51.111248
2022-08-26T01:05:21.113Z,51.111256
2022-08-26T01:06:21.073Z,51.111256
2022-08-26T01:07:21.135Z,51.111237
2022-08-26T01:08:21.099Z,51.111176
2022-08-26T01:09:21.100Z,51.111259
2022-08-26T01:10:21.064Z,51.111286
2022-08-26T01:11:21.067Z,51.111298
2022-08-26T01:12:22.350Z,51.111271
2022-08-26T01:13:20.995Z,51.111259
2022-08-26T01:14:20.989Z,51.111256
2022-08-26T01:15:20.969Z,51.111225
2022-08-26T01:16:20.998Z,51.111210
2022-08-26T01:17:21.023Z,51.111233
2022-08-26T01:18:20.955Z,51.111233
2022-08-26T01:19:20.972Z,51.111248
2022-08-26T01:20:20.930Z,51.111240
2022-08-26T01:21:20.925Z,51.111240
2022-08-26T01:22:22.250Z,51.111244
2022-08-26T01:23:21.926Z,51.111240
2022-08-26T01:24:20.913Z,51.111252
2022-08-26T01:25:20.987Z,51.111252
2022-08-26T01:26:20.991Z,51.111256
2022-08-26T01:27:21.014Z,51.111229
2022-08-26T01:28:21.024Z,51.111240
2022-08-26T01:29:20.971Z,51.111217
2022-08-26T01:30:20.955Z,51.111256
2022-08-26T01:31:21.061Z,51.111244
2022-08-26T01:32:20.910Z,51.111240
2022-08-26T01:33:20.971Z,51.111252
2022-08-26T01:34:20.923Z,51.111248
2022-08-26T01:35:20.897Z,51.111225
2022-08-26T01:36:20.916Z,51.111275
2022-08-26T01:37:20.889Z,51.111259
2022-08-26T01:38:20.934Z,51.111282
2022-08-26T01:39:20.896Z,51.111271
2022-08-26T01:40:21.012Z,51.111275
2022-08-26T01:41:27.175Z,51.111252
2022-08-26T01:42:21.949Z,51.111252
2022-08-26T01:43:20.862Z,51.111237
2022-08-26T01:44:20.898Z,51.111237
2022-08-26T01:45:20.838Z,51.111252
2022-08-26T01:46:20.751Z,51.111240
2022-08-26T01:47:20.815Z,51.111259
2022-08-26T01:48:20.832Z,51.111263
2022-08-26T01:49:20.916Z,51.111286
2022-08-26T01:50:27.614Z,51.111332
2022-08-26T01:51:21.817Z,51.111332
2022-08-26T01:52:20.786Z,51.111282
2022-08-26T01:53:21.469Z,51.111317
2022-08-26T01:54:20.867Z,51.111351
2022-08-26T01:55:32.372Z,51.111271
2022-08-26T01:56:21.683Z,51.111259
2022-08-26T01:57:20.690Z,51.111217
2022-08-26T01:58:20.675Z,51.111206
2022-08-26T01:59:20.673Z,51.111210
2022-08-26T02:00:20.706Z,51.111256
2022-08-26T02:01:20.701Z,51.111324
2022-08-26T02:02:20.656Z,51.111374
2022-08-26T02:03:20.633Z,51.111282
2022-08-26T02:04:20.680Z,51.111324
2022-08-26T02:05:20.648Z,51.111294
2022-08-26T02:06:20.712Z,51.111198
2022-08-26T02:07:21.522Z,51.111385
2022-08-26T02:08:24.909Z,51.111355
2022-08-26T02:09:20.641Z,51.111298
2022-08-26T02:10:20.790Z,51.111389
2022-08-26T02:11:20.672Z,51.111435
2022-08-26T02:12:20.650Z,51.111351
2022-08-26T02:13:20.640Z,51.111309
2022-08-26T02:14:20.662Z,51.111389
2022-08-26T02:15:20.683Z,51.111412
2022-08-26T02:16:20.715Z,51.111370
2022-08-26T02:17:21.258Z,51.111286
2022-08-26T02:18:20.621Z,51.111427
2022-08-26T02:19:20.600Z,51.111393
2022-08-26T02:20:20.591Z,51.111309
2022-08-26T02:21:20.592Z,51.111328
2022-08-26T02:22:20.635Z,51.111382
2022-08-26T02:23:20.545Z,51.111366
2022-08-26T02:24:20.589Z,51.111462
2022-08-26T02:25:20.549Z,51.111343
2022-08-26T02:26:20.677Z,51.111439
2022-08-26T02:27:20.528Z,51.111465
2022-08-26T02:28:20.514Z,51.111412
2022-08-26T02:29:20.491Z,51.111416
2022-08-26T02:30:20.523Z,51.111412
2022-08-26T02:31:20.544Z,51.111439
2022-08-26T02:32:20.558Z,51.111401
2022-08-26T02:33:20.493Z,51.111423
2022-08-26T02:34:20.507Z,51.111443
2022-08-26T02:35:20.506Z,51.111404
2022-08-26T02:36:20.475Z,51.111526
2022-08-26T02:37:20.510Z,51.111523
2022-08-26T02:38:20.442Z,51.111439
2022-08-26T02:39:22.126Z,51.111412
2022-08-26T02:40:20.487Z,51.111507
2022-08-26T02:41:20.472Z,51.111481
2022-08-26T02:42:20.452Z,51.111370
2022-08-26T02:43:31.504Z,51.111359
2022-08-26T02:44:21.414Z,51.111431
2022-08-26T02:45:23.335Z,51.111485
2022-08-26T02:46:21.498Z,51.111404
2022-08-26T02:47:21.392Z,51.111446
2022-08-26T02:48:20.316Z,51.111397
2022-08-26T02:49:20.314Z,51.111427
2022-08-26T02:50:20.282Z,51.111427
2022-08-26T02:51:20.296Z,51.111423
2022-08-26T02:52:20.265Z,51.111359
2022-08-26T02:53:25.050Z,51.111351
2022-08-26T02:54:22.254Z,51.111416
2022-08-26T02:55:20.260Z,51.111404
2022-08-26T02:56:20.256Z,51.111401
2022-08-26T02:57:20.249Z,51.111446
2022-08-26T02:58:20.286Z,51.111584
2022-08-26T02:59:20.258Z,51.111515
2022-08-26T03:00:20.327Z,51.111458
2022-08-26T03:01:20.307Z,51.111496
2022-08-26T03:02:20.237Z,51.111481
2022-08-26T03:03:20.269Z,51.111496
2022-08-26T03:04:20.196Z,51.111488
2022-08-26T03:05:20.274Z,51.111408
2022-08-26T03:06:20.238Z,51.111359
2022-08-26T03:07:20.246Z,51.111385
2022-08-26T03:08:20.308Z,51.111420
2022-08-26T03:09:20.213Z,51.111343
2022-08-26T03:10:20.277Z,51.111347
2022-08-26T03:11:20.181Z,51.111382
2022-08-26T03:12:20.227Z,51.111347
2022-08-26T03:13:20.215Z,51.111412
2022-08-26T03:14:20.233Z,51.111370
2022-08-26T03:15:20.187Z,51.111408
2022-08-26T03:16:20.244Z,51.111404
2022-08-26T03:17:20.151Z,51.111389
2022-08-26T03:18:20.553Z,51.111382
2022-08-26T03:19:20.223Z,51.111401
2022-08-26T03:20:20.169Z,51.111454
2022-08-26T03:21:20.156Z,51.111336
2022-08-26T03:22:20.550Z,51.111301
2022-08-26T03:23:20.153Z,51.111279
2022-08-26T03:24:20.172Z,51.111298
2022-08-26T03:25:20.096Z,51.111256
2022-08-26T03:26:20.105Z,51.111294
2022-08-26T03:27:20.142Z,51.111347
2022-08-26T03:28:20.119Z,51.111336
2022-08-26T03:29:20.154Z,51.111359
2022-08-26T03:30:20.159Z,51.111317
2022-08-26T03:31:20.196Z,51.111336
2022-08-26T03:32:20.049Z,51.111336
2022-08-26T03:33:20.145Z,51.111347
2022-08-26T03:34:20.076Z,51.111267
2022-08-26T03:35:20.100Z,51.111244
2022-08-26T03:36:20.035Z,51.111279
2022-08-26T03:37:20.037Z,51.111309
2022-08-26T03:38:20.017Z,51.111294
2022-08-26T03:39:20.021Z,51.111336
2022-08-26T03:40:20.274Z,51.111317
2022-08-26T03:41:19.976Z,51.111286
2022-08-26T03:42:21.525Z,51.111282
2022-08-26T03:43:20.007Z,51.111282
2022-08-26T03:44:19.990Z,51.111286
2022-08-26T03:45:19.975Z,51.111282
2022-08-26T03:46:20.056Z,51.111305
2022-08-26T03:47:19.962Z,51.111301
2022-08-26T03:48:19.932Z,51.111290
2022-08-26T03:49:19.923Z,51.111305
2022-08-26T03:50:22.911Z,51.111309
2022-08-26T03:51:19.972Z,51.111290
2022-08-26T03:52:19.944Z,51.111298
2022-08-26T03:53:20.539Z,51.111328
2022-08-26T03:54:19.986Z,51.111309
2022-08-26T03:55:19.926Z,51.111279
2022-08-26T03:56:19.913Z,51.111290
2022-08-26T03:57:19.875Z,51.111279
2022-08-26T03:58:19.876Z,51.111240
2022-08-26T03:59:19.893Z,51.111244
2022-08-26T04:00:19.855Z,51.111221
2022-08-26T04:01:19.915Z,51.111279
2022-08-26T04:02:19.911Z,51.111259
2022-08-26T04:03:19.827Z,51.111286
2022-08-26T04:04:22.733Z,51.111301
2022-08-26T04:05:19.755Z,51.111294
2022-08-26T04:06:19.753Z,51.111309
2022-08-26T04:07:19.763Z,51.111305
2022-08-26T04:08:19.723Z,51.111309
2022-08-26T04:09:19.790Z,51.111328
2022-08-26T04:10:20.413Z,51.111282
2022-08-26T04:11:19.725Z,51.111271
2022-08-26T04:12:19.824Z,51.111324
2022-08-26T04:13:19.764Z,51.111343
2022-08-26T04:14:20.195Z,51.111332
2022-08-26T04:15:19.787Z,51.111301
2022-08-26T04:16:19.798Z,51.111301
2022-08-26T04:17:19.751Z,51.111301
2022-08-26T04:18:20.707Z,51.111294
2022-08-26T04:19:19.717Z,51.111294
2022-08-26T04:20:19.717Z,51.111282
2022-08-26T04:21:19.724Z,51.111271
2022-08-26T04:22:24.406Z,51.111328
2022-08-26T04:23:20.772Z,51.111351
2022-08-26T04:24:19.710Z,51.111382
2022-08-26T04:25:20.612Z,51.111324
2022-08-26T04:26:19.729Z,51.111259
2022-08-26T04:27:19.697Z,51.111294
2022-08-26T04:28:19.688Z,51.111290
2022-08-26T04:29:19.665Z,51.111294
2022-08-26T04:30:19.677Z,51.111240
2022-08-26T04:31:19.742Z,51.111298
2022-08-26T04:32:19.645Z,51.111282
2022-08-26T04:33:19.646Z,51.111301
2022-08-26T04:34:20.632Z,51.111286
2022-08-26T04:35:25.827Z,51.111279
2022-08-26T04:36:21.638Z,51.111282
2022-08-26T04:37:19.591Z,51.111282
2022-08-26T04:38:19.586Z,51.111298
2022-08-26T04:39:19.612Z,51.111305
2022-08-26T04:40:19.637Z,51.111282
2022-08-26T04:41:19.551Z,51.111263
2022-08-26T04:42:25.875Z,51.111195
2022-08-26T04:43:21.532Z,51.111240
2022-08-26T04:44:19.539Z,51.111263
2022-08-26T04:45:22.898Z,51.111225
2022-08-26T04:46:19.488Z,51.111256
2022-08-26T04:47:19.589Z,51.111267
2022-08-26T04:48:19.494Z,51.111286
2022-08-26T04:49:19.488Z,51.111298
2022-08-26T04:50:19.601Z,51.111294
2022-08-26T04:51:19.498Z,51.111282
2022-08-26T04:52:19.555Z,51.111267
2022-08-26T04:53:19.461Z,51.111320
2022-08-26T04:54:19.543Z,51.111275
2022-08-26T04:55:19.582Z,51.111259
2022-08-26T04:56:19.440Z,51.111263
2022-08-26T04:57:19.459Z,51.111271
2022-08-26T04:58:19.419Z,51.111286
2022-08-26T04:59:19.453Z,51.111309
2022-08-26T05:00:19.425Z,51.111279
2022-08-26T05:01:19.526Z,51.111301
2022-08-26T05:02:20.220Z,51.111324
2022-08-26T05:03:19.365Z,51.111515
2022-08-26T05:04:19.384Z,51.111458
2022-08-26T05:05:19.324Z,51.111423
2022-08-26T05:06:19.329Z,51.111355
2022-08-26T05:07:19.332Z,51.111393
2022-08-26T05:08:19.318Z,51.111374
2022-08-26T05:09:19.278Z,51.111294
2022-08-26T05:10:19.393Z,51.111313
2022-08-26T05:11:19.352Z,51.111374
2022-08-26T05:12:19.289Z,51.111420
2022-08-26T05:13:20.554Z,51.111370
2022-08-26T05:14:19.227Z,51.111370
2022-08-26T05:15:19.247Z,51.111412
2022-08-26T05:16:19.336Z,51.111355
2022-08-26T05:17:19.344Z,51.111282
2022-08-26T05:18:19.997Z,51.111240
2022-08-26T05:19:19.620Z,51.111298
2022-08-26T05:20:22.644Z,51.111404
2022-08-26T05:21:21.236Z,51.111374
2022-08-26T05:22:19.279Z,51.111328
2022-08-26T05:23:19.252Z,51.111347
2022-08-26T05:24:19.265Z,51.111320
2022-08-26T05:25:19.241Z,51.111340
2022-08-26T05:26:23.066Z,51.111305
2022-08-26T05:27:19.285Z,51.111340
2022-08-26T05:28:19.250Z,51.111320
2022-08-26T05:29:19.234Z,51.111320
2022-08-26T05:30:19.244Z,51.111286
2022-08-26T05:31:19.232Z,51.111282
2022-08-26T05:32:19.169Z,51.111320
2022-08-26T05:33:19.294Z,51.111332
2022-08-26T05:34:19.218Z,51.111347
2022-08-26T05:35:19.220Z,51.111343
2022-08-26T05:36:19.227Z,51.111355
2022-08-26T05:37:19.134Z,51.111324
2022-08-26T05:38:19.649Z,51.111320
2022-08-26T05:39:19.152Z,51.111298
2022-08-26T05:40:19.190Z,51.111301
2022-08-26T05:41:19.189Z,51.111313
2022-08-26T05:42:19.113Z,51.111282
2022-08-26T05:43:19.161Z,51.111286
2022-08-26T05:44:19.100Z,51.111267
2022-08-26T05:45:19.086Z,51.111279
2022-08-26T05:46:20.105Z,51.111298
2022-08-26T05:47:19.095Z,51.111263
2022-08-26T05:48:19.085Z,51.111282
2022-08-26T05:49:20.119Z,51.111320
2022-08-26T05:50:19.073Z,51.111336
2022-08-26T05:51:22.791Z,51.111320
2022-08-26T05:52:20.062Z,51.111294
2022-08-26T05:53:19.058Z,51.111301
2022-08-26T05:54:22.011Z,51.111298
2022-08-26T05:55:19.081Z,51.111294
2022-08-26T05:56:19.032Z,51.111320
2022-08-26T05:57:19.073Z,51.111305
2022-08-26T05:58:19.014Z,51.111301
2022-08-26T05:59:24.147Z,51.111317
2022-08-26T06:00:20.021Z,51.111340
2022-08-26T06:01:19.001Z,51.111347
2022-08-26T06:02:18.953Z,51.111332
2022-08-26T06:03:19.002Z,51.111324
2022-08-26T06:04:18.907Z,51.111286
2022-08-26T06:05:18.902Z,51.111217
2022-08-26T06:06:20.147Z,51.111267
2022-08-26T06:07:19.856Z,51.111290
2022-08-26T06:08:19.328Z,51.111271
2022-08-26T06:09:18.838Z,51.111301
2022-08-26T06:10:32.098Z,51.111328
2022-08-26T06:11:20.835Z,51.111309
2022-08-26T06:12:18.867Z,51.111271
2022-08-26T06:13:18.841Z,51.111279
2022-08-26T06:14:18.797Z,51.111233
2022-08-26T06:15:18.883Z,51.111248
2022-08-26T06:16:18.854Z,51.111248
2022-08-26T06:17:18.803Z,51.111225
2022-08-26T06:18:18.787Z,51.111221
2022-08-26T06:19:18.780Z,51.111225
2022-08-26T06:20:18.764Z,51.111248
2022-08-26T06:21:19.670Z,51.111259
2022-08-26T06:22:23.342Z,51.111282
2022-08-26T06:23:20.765Z,51.111259
2022-08-26T06:24:18.760Z,51.111286
2022-08-26T06:25:18.786Z,51.111282
2022-08-26T06:26:18.871Z,51.111233
2022-08-26T06:27:18.795Z,51.111233
2022-08-26T06:28:18.781Z,51.111221
2022-08-26T06:29:24.327Z,51.111198
2022-08-26T06:30:19.714Z,51.111229
2022-08-26T06:31:18.898Z,51.111237
2022-08-26T06:32:18.807Z,51.111237
2022-08-26T06:33:18.742Z,51.111233
2022-08-26T06:34:18.780Z,51.111256
2022-08-26T06:35:18.753Z,51.111237
2022-08-26T06:36:18.790Z,51.111248
2022-08-26T06:37:18.754Z,51.111229
2022-08-26T06:38:18.758Z,51.111229
2022-08-26T06:39:18.696Z,51.111240
2022-08-26T06:40:18.748Z,51.111271
2022-08-26T06:41:18.723Z,51.111279
2022-08-26T06:42:18.757Z,51.111263
2022-08-26T06:43:18.755Z,51.111229
2022-08-26T06:44:18.691Z,51.111256
2022-08-26T06:45:18.744Z,51.111240
2022-08-26T06:46:18.623Z,51.111244
2022-08-26T06:47:19.840Z,51.111271
2022-08-26T06:48:18.657Z,51.111282
2022-08-26T06:49:25.739Z,51.111237
2022-08-26T06:50:19.662Z,51.111214
2022-08-26T06:51:18.617Z,51.111240
2022-08-26T06:52:22.944Z,51.111267
2022-08-26T06:53:20.663Z,51.111244
2022-08-26T06:54:18.580Z,51.111240
2022-08-26T06:55:18.617Z,51.111217
2022-08-26T06:56:18.584Z,51.111275
2022-08-26T06:57:18.606Z,51.111294
2022-08-26T06:58:18.612Z,51.111275
2022-08-26T06:59:18.558Z,51.111240
2022-08-26T07:00:18.601Z,51.111233
2022-08-26T07:01:18.570Z,51.111206
2022-08-26T07:02:18.597Z,51.111275
2022-08-26T07:03:18.603Z,51.111240
2022-08-26T07:04:22.098Z,51.111240
2022-08-26T07:05:18.520Z,51.111252
2022-08-26T07:06:18.559Z,51.111225
2022-08-26T07:07:18.530Z,51.111221
2022-08-26T07:08:18.629Z,51.111229
2022-08-26T07:09:18.499Z,51.111252
2022-08-26T07:10:18.494Z,51.111248
2022-08-26T07:11:18.517Z,51.111256
2022-08-26T07:12:18.481Z,51.111248
2022-08-26T07:13:29.920Z,51.111263
2022-08-26T07:14:21.630Z,51.111263
2022-08-26T07:15:18.383Z,51.111240
2022-08-26T07:16:19.433Z,51.111248
2022-08-26T07:17:18.362Z,51.111248
2022-08-26T07:18:18.402Z,51.111259
2022-08-26T07:19:18.378Z,51.111252
2022-08-26T07:20:19.397Z,51.111229
2022-08-26T07:21:18.426Z,51.111248
2022-08-26T07:22:18.345Z,51.111259
2022-08-26T07:23:18.336Z,51.111267
2022-08-26T07:24:18.351Z,51.111271
2022-08-26T07:25:19.244Z,51.111263
2022-08-26T07:26:18.275Z,51.111256
2022-08-26T07:27:18.329Z,51.111237
2022-08-26T07:28:18.297Z,51.111248
2022-08-26T07:29:18.327Z,51.111240
2022-08-26T07:30:18.273Z,51.111225
2022-08-26T07:31:18.372Z,51.111240
2022-08-26T07:32:18.266Z,51.111256
2022-08-26T07:33:18.285Z,51.111248
2022-08-26T07:34:18.356Z,51.111252
2022-08-26T07:35:18.336Z,51.111233
2022-08-26T07:36:18.392Z,51.111210
2022-08-26T07:37:18.352Z,51.111259
2022-08-26T07:38:18.399Z,51.111217
2022-08-26T07:39:18.351Z,51.111225
2022-08-26T07:40:18.432Z,51.111214
2022-08-26T07:41:18.346Z,51.111244
2022-08-26T07:42:18.506Z,51.111267
2022-08-26T07:43:18.270Z,51.111286
2022-08-26T07:44:18.300Z,51.111282
2022-08-26T07:45:18.346Z,51.111301
2022-08-26T07:46:18.179Z,51.111332
2022-08-26T07:47:25.859Z,51.111324
2022-08-26T07:48:19.163Z,51.111351
2022-08-26T07:49:18.271Z,51.111320
2022-08-26T07:50:18.336Z,51.111343
2022-08-26T07:51:18.249Z,51.111343
2022-08-26T07:52:20.664Z,51.111309
2022-08-26T07:53:19.435Z,51.111328
2022-08-26T07:54:18.290Z,51.111279
2022-08-26T07:55:18.161Z,51.111324
2022-08-26T07:56:18.291Z,51.111279
2022-08-26T07:57:19.164Z,51.111259
2022-08-26T07:58:18.155Z,51.111256
2022-08-26T07:59:18.172Z,51.111305
2022-08-26T08:00:18.205Z,51.111259
2022-08-26T08:01:18.283Z,51.111305
2022-08-26T08:02:18.137Z,51.111305
2022-08-26T08:03:18.138Z,51.111286
2022-08-26T08:04:18.427Z,51.111286
2022-08-26T08:05:18.214Z,51.111298
2022-08-26T08:06:18.142Z,51.111282
2022-08-26T08:07:18.109Z,51.111244
2022-08-26T08:08:27.077Z,51.111305
2022-08-26T08:09:19.158Z,51.111240
2022-08-26T08:10:18.055Z,51.111198
2022-08-26T08:11:18.106Z,51.111256
2022-08-26T08:12:18.094Z,51.111366
2022-08-26T08:13:18.091Z,51.111301
2022-08-26T08:14:18.045Z,51.111313
2022-08-26T08:15:18.078Z,51.111286
2022-08-26T08:16:18.058Z,51.111279
2022-08-26T08:17:18.105Z,51.111282
2022-08-26T08:18:18.044Z,51.111313
2022-08-26T08:19:18.051Z,51.111347
2022-08-26T08:20:17.994Z,51.111374
2022-08-26T08:21:21.924Z,51.111351
2022-08-26T08:22:20.032Z,51.111294
2022-08-26T08:23:17.996Z,51.111275
2022-08-26T08:24:18.010Z,51.111298
2022-08-26T08:25:18.011Z,51.111233
2022-08-26T08:26:18.001Z,51.111191
2022-08-26T08:27:22.829Z,51.111214
2022-08-26T08:28:18.988Z,51.111301
2022-08-26T08:29:18.043Z,51.111290
2022-08-26T08:30:20.895Z,51.111271
2022-08-26T08:31:19.213Z,51.111301
2022-08-26T08:32:18.882Z,51.111263
2022-08-26T08:33:17.839Z,51.111240
2022-08-26T08:34:18.221Z,51.111271
2022-08-26T08:35:17.865Z,51.111248
2022-08-26T08:36:18.602Z,51.111271
2022-08-26T08:37:17.798Z,51.111336
2022-08-26T08:38:17.807Z,51.111275
2022-08-26T08:39:17.823Z,51.111198
2022-08-26T08:40:17.863Z,51.111115
2022-08-26T08:41:17.792Z,51.111237
2022-08-26T08:42:17.764Z,51.111332
2022-08-26T08:43:18.381Z,51.111412
2022-08-26T08:44:17.802Z,51.111286
2022-08-26T08:45:18.382Z,51.111259
2022-08-26T08:46:17.812Z,51.111248
2022-08-26T08:47:17.830Z,51.111229
2022-08-26T08:48:17.800Z,51.111263
2022-08-26T08:49:17.855Z,51.111263
2022-08-26T08:50:17.815Z,51.111282
2022-08-26T08:51:17.776Z,51.111252
2022-08-26T08:52:17.768Z,51.111256
2022-08-26T08:53:17.792Z,51.111301
2022-08-26T08:54:17.788Z,51.111298
2022-08-26T08:55:18.229Z,51.111237
2022-08-26T08:56:18.759Z,51.111252
2022-08-26T08:57:17.776Z,51.111275
2022-08-26T08:58:19.150Z,51.111332
2022-08-26T08:59:17.958Z,51.111282
2022-08-26T09:00:17.851Z,51.111271
2022-08-26T09:01:17.784Z,51.111240
2022-08-26T09:02:17.744Z,51.111244
2022-08-26T09:03:17.672Z,51.111259
2022-08-26T09:04:17.678Z,51.111263
2022-08-26T09:05:17.704Z,51.111267
2022-08-26T09:06:17.697Z,51.111275
2022-08-26T09:07:17.656Z,51.111252
2022-08-26T09:08:19.830Z,51.111252
2022-08-26T09:09:17.654Z,51.111263
2022-08-26T09:10:17.750Z,51.111256
2022-08-26T09:11:17.668Z,51.111221
2022-08-26T09:12:17.636Z,51.111252
2022-08-26T09:13:24.867Z,51.111256
2022-08-26T09:14:18.631Z,51.111263
2022-08-26T09:15:17.663Z,51.111252
2022-08-26T09:16:19.123Z,51.111256
2022-08-26T09:17:17.586Z,51.111263
2022-08-26T09:18:17.629Z,51.111256
2022-08-26T09:19:18.799Z,51.111267
2022-08-26T09:20:17.700Z,51.111259
2022-08-26T09:21:17.909Z,51.111263
2022-08-26T09:22:17.665Z,51.111252
2022-08-26T09:23:18.143Z,51.111244
2022-08-26T09:24:18.132Z,51.111259
2022-08-26T09:25:18.626Z,51.111267
2022-08-26T09:26:17.577Z,51.111263
2022-08-26T09:27:17.508Z,51.111256
2022-08-26T09:28:17.568Z,51.111259
2022-08-26T09:29:17.573Z,51.111248
2022-08-26T09:30:17.631Z,51.111252
2022-08-26T09:31:17.579Z,51.111256
2022-08-26T09:32:17.473Z,51.111248
2022-08-26T09:33:17.533Z,51.111248
2022-08-26T09:34:17.871Z,51.111240
2022-08-26T09:35:17.472Z,51.111252
2022-08-26T09:36:17.461Z,51.111233
2022-08-26T09:37:17.516Z,51.111248
2022-08-26T09:38:17.453Z,51.111221
2022-08-26T09:39:17.442Z,51.111229
2022-08-26T09:40:17.583Z,51.111244
2022-08-26T09:41:17.458Z,51.111259
2022-08-26T09:42:17.463Z,51.111263
2022-08-26T09:43:21.997Z,51.111275
2022-08-26T09:44:18.427Z,51.111244
2022-08-26T09:45:17.396Z,51.111259
2022-08-26T09:46:17.417Z,51.111252
2022-08-26T09:47:17.621Z,51.111248
2022-08-26T09:48:17.303Z,51.111263
2022-08-26T09:49:17.336Z,51.111271
2022-08-26T09:50:17.284Z,51.111237
2022-08-26T09:51:17.276Z,51.111252
2022-08-26T09:52:17.298Z,51.111275
2022-08-26T09:53:20.997Z,51.111229
2022-08-26T09:54:20.664Z,51.111244
2022-08-26T09:55:17.298Z,51.111259
2022-08-26T09:56:17.327Z,51.111237
2022-08-26T09:57:17.288Z,51.111248
2022-08-26T09:58:17.334Z,51.111256
2022-08-26T09:59:18.953Z,51.111385
2022-08-26T10:00:17.235Z,51.111294
2022-08-26T10:01:17.385Z,51.111263
2022-08-26T10:02:17.213Z,51.111271
2022-08-26T10:03:17.491Z,51.111275
2022-08-26T10:04:17.342Z,51.111275
2022-08-26T10:05:17.228Z,51.111248
2022-08-26T10:06:17.303Z,51.111252
2022-08-26T10:07:17.259Z,51.111244
2022-08-26T10:08:17.336Z,51.111225
2022-08-26T10:09:17.246Z,51.111279
2022-08-26T10:10:17.275Z,51.111259
2022-08-26T10:11:17.235Z,51.111248
2022-08-26T10:12:17.232Z,51.111244
2022-08-26T10:13:17.184Z,51.111225
2022-08-26T10:14:17.250Z,51.111225
2022-08-26T10:15:17.224Z,51.111259
2022-08-26T10:16:17.259Z,51.111294
2022-08-26T10:17:17.176Z,51.111263
2022-08-26T10:18:17.162Z,51.111233
2022-08-26T10:19:17.210Z,51.111271
2022-08-26T10:20:23.177Z,51.111279
2022-08-26T10:21:18.214Z,51.111301
2022-08-26T10:22:17.130Z,51.111271
2022-08-26T10:23:17.113Z,51.111256
2022-08-26T10:24:18.154Z,51.111290
2022-08-26T10:25:17.107Z,51.111301
2022-08-26T10:26:17.215Z,51.111320
2022-08-26T10:27:17.139Z,51.111378
2022-08-26T10:28:17.159Z,51.111366
2022-08-26T10:29:17.171Z,51.111355
2022-08-26T10:30:17.050Z,51.111313
2022-08-26T10:31:17.138Z,51.111248
2022-08-26T10:32:17.098Z,51.111198
2022-08-26T10:33:18.164Z,51.111244
2022-08-26T10:34:17.078Z,51.111275
2022-08-26T10:35:17.127Z,51.111328
2022-08-26T10:36:17.044Z,51.111427
2022-08-26T10:37:17.092Z,51.111366
2022-08-26T10:38:17.015Z,51.111286
2022-08-26T10:39:17.010Z,51.111275
2022-08-26T10:40:17.058Z,51.111275
2022-08-26T10:41:18.218Z,51.111343
2022-08-26T10:42:17.013Z,51.111347
2022-08-26T10:43:16.990Z,51.111355
2022-08-26T10:44:16.960Z,51.111313
2022-08-26T10:45:16.990Z,51.111286
2022-08-26T10:46:17.087Z,51.111313
2022-08-26T10:47:16.887Z,51.111279
2022-08-26T10:48:16.872Z,51.111279
2022-08-26T10:49:16.910Z,51.111301
2022-08-26T10:50:18.171Z,51.111343
2022-08-26T10:51:16.897Z,51.111317
2022-08-26T10:52:16.917Z,51.111309
2022-08-26T10:53:16.850Z,51.111340
2022-08-26T10:54:16.862Z,51.111355
2022-08-26T10:55:16.840Z,51.111382
2022-08-26T10:56:19.171Z,51.111423
2022-08-26T10:57:16.833Z,51.111389
2022-08-26T10:58:26.120Z,51.111309
2022-08-26T10:59:17.786Z,51.111320
2022-08-26T11:00:17.788Z,51.111240
2022-08-26T11:01:16.968Z,51.111206
2022-08-26T11:02:21.547Z,51.111248
2022-08-26T11:03:22.415Z,51.111298
2022-08-26T11:04:17.806Z,51.111355
2022-08-26T11:05:16.878Z,51.111450
2022-08-26T11:06:17.583Z,51.111374
2022-08-26T11:07:16.848Z,51.111340
2022-08-26T11:08:16.833Z,51.111298
2022-08-26T11:09:16.954Z,51.111290
2022-08-26T11:10:16.904Z,51.111279
2022-08-26T11:11:16.860Z,51.111248
2022-08-26T11:12:16.868Z,51.111294
2022-08-26T11:13:16.808Z,51.111301
2022-08-26T11:14:16.803Z,51.111294
2022-08-26T11:15:17.711Z,51.111275
2022-08-26T11:16:16.837Z,51.111240
2022-08-26T11:17:16.832Z,51.111198
2022-08-26T11:18:16.804Z,51.111244
2022-08-26T11:19:16.790Z,51.111267
2022-08-26T11:20:16.834Z,51.111267
2022-08-26T11:21:16.747Z,51.111256
2022-08-26T11:22:17.842Z,51.111313
2022-08-26T11:23:16.772Z,51.111271
2022-08-26T11:24:16.811Z,51.111149